sensor_id;sensor_type;location;lat;lon;timestamp;P1;durP1;ratioP1;P2;durP2;ratioP2
70729;SDS011;58315;53.336;55.932;2023-02-21T00:00:24;5.60;;;2.58;;
70729;SDS011;58315;53.336;55.932;2023-02-21T00:03:08;4.35;;;2.60;;
70729;SDS011;58315;53.336;55.932;2023-02-21T00:05:53;4.07;;;2.00;;
70729;SDS011;58315;53.336;55.932;2023-02-21T00:08:37;5.90;;;2.67;;
70729;SDS011;58315;53.336;55.932;2023-02-21T00:11:22;5.47;;;2.95;;
70729;SDS011;58315;53.336;55.932;2023-02-21T00:14:06;8.23;;;2.55;;
70729;SDS011;58315;53.336;55.932;2023-02-21T00:16:50;5.13;;;2.50;;
70729;SDS011;58315;53.336;55.932;2023-02-21T00:19:35;5.78;;;2.17;;
70729;SDS011;58315;53.336;55.932;2023-02-21T00:22:19;8.20;;;2.55;;
70729;SDS011;58315;53.336;55.932;2023-02-21T00:25:03;5.10;;;1.58;;
70729;SDS011;58315;53.336;55.932;2023-02-21T00:27:48;5.20;;;2.10;;
70729;SDS011;58315;53.336;55.932;2023-02-21T00:30:32;6.35;;;2.97;;
70729;SDS011;58315;53.336;55.932;2023-02-21T00:33:17;7.88;;;2.85;;
70729;SDS011;58315;53.336;55.932;2023-02-21T00:36:02;6.07;;;3.13;;
70729;SDS011;58315;53.336;55.932;2023-02-21T00:38:47;4.90;;;2.45;;
70729;SDS011;58315;53.336;55.932;2023-02-21T00:41:31;5.57;;;2.55;;
70729;SDS011;58315;53.336;55.932;2023-02-21T00:44:16;7.03;;;2.42;;
70729;SDS011;58315;53.336;55.932;2023-02-21T00:47:19;5.43;;;2.20;;
70729;SDS011;58315;53.336;55.932;2023-02-21T00:50:03;4.85;;;2.70;;
70729;SDS011;58315;53.336;55.932;2023-02-21T00:52:48;11.60;;;2.75;;
70729;SDS011;58315;53.336;55.932;2023-02-21T00:55:33;3.45;;;2.10;;
70729;SDS011;58315;53.336;55.932;2023-02-21T00:58:19;7.88;;;2.28;;
70729;SDS011;58315;53.336;55.932;2023-02-21T01:01:05;5.18;;;2.20;;
70729;SDS011;58315;53.336;55.932;2023-02-21T01:03:49;6.38;;;2.13;;
70729;SDS011;58315;53.336;55.932;2023-02-21T01:06:33;4.45;;;2.28;;
70729;SDS011;58315;53.336;55.932;2023-02-21T01:09:18;6.18;;;2.28;;
70729;SDS011;58315;53.336;55.932;2023-02-21T01:12:21;10.75;;;3.13;;
70729;SDS011;58315;53.336;55.932;2023-02-21T01:15:06;4.28;;;2.13;;
70729;SDS011;58315;53.336;55.932;2023-02-21T01:17:50;6.30;;;2.53;;
70729;SDS011;58315;53.336;55.932;2023-02-21T01:20:35;4.03;;;2.60;;
70729;SDS011;58315;53.336;55.932;2023-02-21T01:23:19;2.58;;;1.90;;
70729;SDS011;58315;53.336;55.932;2023-02-21T01:26:03;4.95;;;2.10;;
70729;SDS011;58315;53.336;55.932;2023-02-21T01:28:47;3.75;;;2.15;;
70729;SDS011;58315;53.336;55.932;2023-02-21T01:31:32;5.20;;;1.77;;
70729;SDS011;58315;53.336;55.932;2023-02-21T01:34:17;6.28;;;2.47;;
70729;SDS011;58315;53.336;55.932;2023-02-21T01:37:01;5.82;;;1.90;;
70729;SDS011;58315;53.336;55.932;2023-02-21T01:39:48;8.88;;;2.47;;
70729;SDS011;58315;53.336;55.932;2023-02-21T01:42:33;6.65;;;2.60;;
70729;SDS011;58315;53.336;55.932;2023-02-21T01:48:23;3.75;;;1.70;;
70729;SDS011;58315;53.336;55.932;2023-02-21T01:51:11;2.65;;;1.65;;
70729;SDS011;58315;53.336;55.932;2023-02-21T01:54:00;4.15;;;2.05;;
70729;SDS011;58315;53.336;55.932;2023-02-21T01:56:45;2.95;;;1.65;;
70729;SDS011;58315;53.336;55.932;2023-02-21T01:59:29;3.28;;;2.05;;
70729;SDS011;58315;53.336;55.932;2023-02-21T02:02:22;2.25;;;1.50;;
70729;SDS011;58315;53.336;55.932;2023-02-21T02:05:10;5.95;;;1.77;;
70729;SDS011;58315;53.336;55.932;2023-02-21T02:07:55;2.63;;;1.58;;
70729;SDS011;58315;53.336;55.932;2023-02-21T02:10:40;3.53;;;2.00;;
70729;SDS011;58315;53.336;55.932;2023-02-21T02:13:34;7.18;;;2.28;;
70729;SDS011;58315;53.336;55.932;2023-02-21T02:28:53;4.53;;;2.15;;
70729;SDS011;58315;53.336;55.932;2023-02-21T02:31:10;4.18;;;2.28;;
70729;SDS011;58315;53.336;55.932;2023-02-21T02:45:02;11.50;;;3.30;;
70729;SDS011;58315;53.336;55.932;2023-02-21T02:47:36;11.07;;;4.75;;
70729;SDS011;58315;53.336;55.932;2023-02-21T02:50:05;2.55;;;1.58;;
70729;SDS011;58315;53.336;55.932;2023-02-21T02:52:34;4.10;;;1.80;;
70729;SDS011;58315;53.336;55.932;2023-02-21T02:55:03;3.90;;;1.80;;
70729;SDS011;58315;53.336;55.932;2023-02-21T02:57:47;4.32;;;2.55;;
70729;SDS011;58315;53.336;55.932;2023-02-21T03:00:17;4.20;;;1.42;;
70729;SDS011;58315;53.336;55.932;2023-02-21T03:05:36;4.88;;;1.60;;
70729;SDS011;58315;53.336;55.932;2023-02-21T03:08:39;8.65;;;1.73;;
70729;SDS011;58315;53.336;55.932;2023-02-21T03:11:17;2.70;;;1.75;;
70729;SDS011;58315;53.336;55.932;2023-02-21T03:14:06;1.67;;;1.10;;
70729;SDS011;58315;53.336;55.932;2023-02-21T03:19:39;2.60;;;1.70;;
70729;SDS011;58315;53.336;55.932;2023-02-21T03:22:16;2.33;;;1.40;;
70729;SDS011;58315;53.336;55.932;2023-02-21T03:24:47;2.05;;;1.42;;
70729;SDS011;58315;53.336;55.932;2023-02-21T03:27:15;4.43;;;2.38;;
70729;SDS011;58315;53.336;55.932;2023-02-21T03:29:50;5.95;;;1.85;;
70729;SDS011;58315;53.336;55.932;2023-02-21T03:34:53;5.95;;;1.35;;
70729;SDS011;58315;53.336;55.932;2023-02-21T03:37:29;4.25;;;2.25;;
70729;SDS011;58315;53.336;55.932;2023-02-21T03:40:08;3.95;;;1.88;;
70729;SDS011;58315;53.336;55.932;2023-02-21T03:42:37;1.90;;;1.13;;
70729;SDS011;58315;53.336;55.932;2023-02-21T03:45:04;1.92;;;1.25;;
70729;SDS011;58315;53.336;55.932;2023-02-21T03:47:31;4.57;;;1.70;;
70729;SDS011;58315;53.336;55.932;2023-02-21T03:49:58;3.47;;;2.00;;
70729;SDS011;58315;53.336;55.932;2023-02-21T03:52:24;4.90;;;2.33;;
70729;SDS011;58315;53.336;55.932;2023-02-21T03:54:50;4.25;;;1.70;;
70729;SDS011;58315;53.336;55.932;2023-02-21T03:57:19;2.35;;;1.55;;
70729;SDS011;58315;53.336;55.932;2023-02-21T03:59:46;3.78;;;1.80;;
70729;SDS011;58315;53.336;55.932;2023-02-21T04:02:12;2.88;;;1.60;;
70729;SDS011;58315;53.336;55.932;2023-02-21T04:04:39;5.15;;;1.98;;
70729;SDS011;58315;53.336;55.932;2023-02-21T04:07:07;7.75;;;2.38;;
70729;SDS011;58315;53.336;55.932;2023-02-21T04:09:35;5.00;;;2.00;;
70729;SDS011;58315;53.336;55.932;2023-02-21T04:12:03;2.53;;;1.55;;
70729;SDS011;58315;53.336;55.932;2023-02-21T04:14:30;5.82;;;2.25;;
70729;SDS011;58315;53.336;55.932;2023-02-21T04:16:56;6.65;;;2.40;;
70729;SDS011;58315;53.336;55.932;2023-02-21T04:19:22;4.53;;;1.92;;
70729;SDS011;58315;53.336;55.932;2023-02-21T04:21:48;2.58;;;1.60;;
70729;SDS011;58315;53.336;55.932;2023-02-21T04:24:14;4.88;;;2.10;;
70729;SDS011;58315;53.336;55.932;2023-02-21T04:26:40;2.85;;;1.48;;
70729;SDS011;58315;53.336;55.932;2023-02-21T04:29:07;5.30;;;2.30;;
70729;SDS011;58315;53.336;55.932;2023-02-21T04:31:33;5.07;;;2.70;;
70729;SDS011;58315;53.336;55.932;2023-02-21T04:34:04;3.72;;;1.98;;
70729;SDS011;58315;53.336;55.932;2023-02-21T04:36:30;4.30;;;2.33;;
70729;SDS011;58315;53.336;55.932;2023-02-21T04:38:56;3.70;;;2.00;;
70729;SDS011;58315;53.336;55.932;2023-02-21T04:41:22;3.03;;;1.77;;
70729;SDS011;58315;53.336;55.932;2023-02-21T04:43:51;4.20;;;1.75;;
70729;SDS011;58315;53.336;55.932;2023-02-21T04:46:18;5.85;;;2.30;;
70729;SDS011;58315;53.336;55.932;2023-02-21T04:48:45;3.47;;;1.98;;
70729;SDS011;58315;53.336;55.932;2023-02-21T04:51:13;8.20;;;2.75;;
70729;SDS011;58315;53.336;55.932;2023-02-21T04:53:41;4.43;;;2.50;;
70729;SDS011;58315;53.336;55.932;2023-02-21T04:56:08;5.03;;;1.58;;
70729;SDS011;58315;53.336;55.932;2023-02-21T04:58:35;5.47;;;2.03;;
70729;SDS011;58315;53.336;55.932;2023-02-21T05:01:01;3.75;;;2.10;;
70729;SDS011;58315;53.336;55.932;2023-02-21T05:03:27;6.00;;;2.95;;
70729;SDS011;58315;53.336;55.932;2023-02-21T05:05:53;9.20;;;2.75;;
70729;SDS011;58315;53.336;55.932;2023-02-21T05:08:19;5.43;;;2.60;;
70729;SDS011;58315;53.336;55.932;2023-02-21T05:10:45;7.82;;;2.72;;
70729;SDS011;58315;53.336;55.932;2023-02-21T05:13:11;5.28;;;2.63;;
70729;SDS011;58315;53.336;55.932;2023-02-21T05:15:38;7.03;;;2.28;;
70729;SDS011;58315;53.336;55.932;2023-02-21T05:18:04;8.45;;;2.72;;
70729;SDS011;58315;53.336;55.932;2023-02-21T05:20:30;5.38;;;2.58;;
70729;SDS011;58315;53.336;55.932;2023-02-21T05:22:56;9.95;;;2.78;;
70729;SDS011;58315;53.336;55.932;2023-02-21T05:25:22;8.57;;;2.33;;
70729;SDS011;58315;53.336;55.932;2023-02-21T05:27:50;5.05;;;2.85;;
70729;SDS011;58315;53.336;55.932;2023-02-21T05:30:19;14.02;;;5.63;;
70729;SDS011;58315;53.336;55.932;2023-02-21T05:35:14;7.30;;;3.22;;
70729;SDS011;58315;53.336;55.932;2023-02-21T05:37:41;13.00;;;3.80;;
70729;SDS011;58315;53.336;55.932;2023-02-21T05:40:09;5.30;;;2.40;;
70729;SDS011;58315;53.336;55.932;2023-02-21T05:42:38;10.38;;;3.58;;
70729;SDS011;58315;53.336;55.932;2023-02-21T05:45:04;9.70;;;3.22;;
70729;SDS011;58315;53.336;55.932;2023-02-21T05:47:34;4.75;;;2.38;;
70729;SDS011;58315;53.336;55.932;2023-02-21T05:50:01;6.22;;;3.58;;
70729;SDS011;58315;53.336;55.932;2023-02-21T05:52:29;7.13;;;3.30;;
70729;SDS011;58315;53.336;55.932;2023-02-21T05:54:55;6.43;;;2.85;;
70729;SDS011;58315;53.336;55.932;2023-02-21T05:57:21;11.18;;;3.40;;
70729;SDS011;58315;53.336;55.932;2023-02-21T05:59:47;6.85;;;2.40;;
70729;SDS011;58315;53.336;55.932;2023-02-21T06:04:58;7.70;;;3.53;;
70729;SDS011;58315;53.336;55.932;2023-02-21T06:07:24;8.93;;;3.85;;
70729;SDS011;58315;53.336;55.932;2023-02-21T06:09:50;10.60;;;3.47;;
70729;SDS011;58315;53.336;55.932;2023-02-21T06:12:18;10.88;;;3.65;;
70729;SDS011;58315;53.336;55.932;2023-02-21T06:14:44;12.40;;;4.95;;
70729;SDS011;58315;53.336;55.932;2023-02-21T06:17:10;6.70;;;3.35;;
70729;SDS011;58315;53.336;55.932;2023-02-21T06:19:36;6.18;;;3.10;;
70729;SDS011;58315;53.336;55.932;2023-02-21T06:22:02;7.28;;;3.22;;
70729;SDS011;58315;53.336;55.932;2023-02-21T06:24:28;6.63;;;3.17;;
70729;SDS011;58315;53.336;55.932;2023-02-21T06:26:54;6.47;;;2.67;;
70729;SDS011;58315;53.336;55.932;2023-02-21T06:29:20;7.30;;;3.42;;
70729;SDS011;58315;53.336;55.932;2023-02-21T06:31:46;6.68;;;2.90;;
70729;SDS011;58315;53.336;55.932;2023-02-21T06:34:12;9.18;;;3.15;;
70729;SDS011;58315;53.336;55.932;2023-02-21T06:36:38;11.40;;;5.03;;
70729;SDS011;58315;53.336;55.932;2023-02-21T06:39:04;5.40;;;2.70;;
70729;SDS011;58315;53.336;55.932;2023-02-21T06:41:30;7.18;;;3.13;;
70729;SDS011;58315;53.336;55.932;2023-02-21T06:43:56;9.90;;;3.33;;
70729;SDS011;58315;53.336;55.932;2023-02-21T06:46:24;7.90;;;3.25;;
70729;SDS011;58315;53.336;55.932;2023-02-21T06:48:53;9.13;;;2.92;;
70729;SDS011;58315;53.336;55.932;2023-02-21T06:51:19;9.00;;;3.13;;
70729;SDS011;58315;53.336;55.932;2023-02-21T06:53:47;8.45;;;3.42;;
70729;SDS011;58315;53.336;55.932;2023-02-21T06:56:15;7.68;;;3.03;;
70729;SDS011;58315;53.336;55.932;2023-02-21T06:58:41;13.95;;;3.95;;
70729;SDS011;58315;53.336;55.932;2023-02-21T07:01:07;9.63;;;3.28;;
70729;SDS011;58315;53.336;55.932;2023-02-21T07:03:33;7.15;;;3.40;;
70729;SDS011;58315;53.336;55.932;2023-02-21T07:05:58;13.50;;;3.90;;
70729;SDS011;58315;53.336;55.932;2023-02-21T07:08:24;9.48;;;3.53;;
70729;SDS011;58315;53.336;55.932;2023-02-21T07:10:51;10.15;;;3.63;;
70729;SDS011;58315;53.336;55.932;2023-02-21T07:13:17;10.45;;;3.80;;
70729;SDS011;58315;53.336;55.932;2023-02-21T07:15:43;10.00;;;3.75;;
70729;SDS011;58315;53.336;55.932;2023-02-21T07:18:09;11.38;;;3.80;;
70729;SDS011;58315;53.336;55.932;2023-02-21T07:20:38;9.93;;;3.63;;
70729;SDS011;58315;53.336;55.932;2023-02-21T07:23:04;10.60;;;3.90;;
70729;SDS011;58315;53.336;55.932;2023-02-21T07:25:29;14.32;;;4.22;;
70729;SDS011;58315;53.336;55.932;2023-02-21T07:27:55;14.07;;;4.70;;
70729;SDS011;58315;53.336;55.932;2023-02-21T07:30:21;18.65;;;4.97;;
70729;SDS011;58315;53.336;55.932;2023-02-21T07:32:47;9.05;;;3.85;;
70729;SDS011;58315;53.336;55.932;2023-02-21T07:35:13;21.55;;;6.53;;
70729;SDS011;58315;53.336;55.932;2023-02-21T07:37:39;12.30;;;4.32;;
70729;SDS011;58315;53.336;55.932;2023-02-21T07:40:05;11.95;;;3.90;;
70729;SDS011;58315;53.336;55.932;2023-02-21T07:42:32;11.80;;;4.38;;
70729;SDS011;58315;53.336;55.932;2023-02-21T07:44:58;11.80;;;3.95;;
70729;SDS011;58315;53.336;55.932;2023-02-21T07:47:25;11.20;;;4.32;;
70729;SDS011;58315;53.336;55.932;2023-02-21T07:49:52;11.80;;;3.40;;
70729;SDS011;58315;53.336;55.932;2023-02-21T07:52:19;14.63;;;4.63;;
70729;SDS011;58315;53.336;55.932;2023-02-21T07:57:31;10.98;;;4.45;;
70729;SDS011;58315;53.336;55.932;2023-02-21T07:59:57;12.32;;;4.93;;
70729;SDS011;58315;53.336;55.932;2023-02-21T08:02:22;13.38;;;4.30;;
70729;SDS011;58315;53.336;55.932;2023-02-21T08:04:49;9.55;;;4.10;;
70729;SDS011;58315;53.336;55.932;2023-02-21T08:07:16;12.60;;;3.80;;
70729;SDS011;58315;53.336;55.932;2023-02-21T08:09:42;16.33;;;5.55;;
70729;SDS011;58315;53.336;55.932;2023-02-21T08:12:08;11.90;;;4.25;;
70729;SDS011;58315;53.336;55.932;2023-02-21T08:14:34;9.55;;;3.92;;
70729;SDS011;58315;53.336;55.932;2023-02-21T08:17:00;9.07;;;4.00;;
70729;SDS011;58315;53.336;55.932;2023-02-21T08:19:26;14.75;;;5.03;;
70729;SDS011;58315;53.336;55.932;2023-02-21T08:21:52;17.02;;;5.03;;
70729;SDS011;58315;53.336;55.932;2023-02-21T08:24:18;10.75;;;3.85;;
70729;SDS011;58315;53.336;55.932;2023-02-21T08:26:44;10.93;;;4.20;;
70729;SDS011;58315;53.336;55.932;2023-02-21T08:29:14;12.25;;;4.40;;
70729;SDS011;58315;53.336;55.932;2023-02-21T08:31:42;14.68;;;5.95;;
70729;SDS011;58315;53.336;55.932;2023-02-21T08:34:09;16.40;;;6.65;;
70729;SDS011;58315;53.336;55.932;2023-02-21T08:36:37;17.13;;;6.55;;
70729;SDS011;58315;53.336;55.932;2023-02-21T08:39:05;18.70;;;4.93;;
70729;SDS011;58315;53.336;55.932;2023-02-21T08:41:39;13.45;;;5.65;;
70729;SDS011;58315;53.336;55.932;2023-02-21T08:44:10;11.93;;;5.07;;
70729;SDS011;58315;53.336;55.932;2023-02-21T08:46:40;21.25;;;5.60;;
70729;SDS011;58315;53.336;55.932;2023-02-21T08:49:07;13.60;;;5.03;;
70729;SDS011;58315;53.336;55.932;2023-02-21T08:51:34;10.30;;;4.65;;
70729;SDS011;58315;53.336;55.932;2023-02-21T08:54:01;18.80;;;5.75;;
70729;SDS011;58315;53.336;55.932;2023-02-21T08:56:28;16.55;;;4.72;;
70729;SDS011;58315;53.336;55.932;2023-02-21T08:58:55;13.45;;;4.60;;
70729;SDS011;58315;53.336;55.932;2023-02-21T09:01:22;11.60;;;4.60;;
70729;SDS011;58315;53.336;55.932;2023-02-21T09:03:49;16.63;;;5.07;;
70729;SDS011;58315;53.336;55.932;2023-02-21T09:06:17;14.40;;;5.90;;
70729;SDS011;58315;53.336;55.932;2023-02-21T09:09:02;10.85;;;4.95;;
70729;SDS011;58315;53.336;55.932;2023-02-21T09:11:28;12.45;;;5.10;;
70729;SDS011;58315;53.336;55.932;2023-02-21T09:14:13;15.77;;;5.28;;
70729;SDS011;58315;53.336;55.932;2023-02-21T09:16:39;12.70;;;4.68;;
70729;SDS011;58315;53.336;55.932;2023-02-21T09:19:06;12.40;;;4.55;;
70729;SDS011;58315;53.336;55.932;2023-02-21T09:21:32;13.85;;;5.28;;
70729;SDS011;58315;53.336;55.932;2023-02-21T09:23:59;12.88;;;4.85;;
70729;SDS011;58315;53.336;55.932;2023-02-21T09:26:27;16.67;;;5.00;;
70729;SDS011;58315;53.336;55.932;2023-02-21T09:28:56;14.82;;;4.40;;
70729;SDS011;58315;53.336;55.932;2023-02-21T09:31:23;14.50;;;5.13;;
70729;SDS011;58315;53.336;55.932;2023-02-21T09:33:49;11.10;;;5.32;;
70729;SDS011;58315;53.336;55.932;2023-02-21T09:36:15;12.35;;;4.55;;
70729;SDS011;58315;53.336;55.932;2023-02-21T09:38:43;18.00;;;5.40;;
70729;SDS011;58315;53.336;55.932;2023-02-21T09:41:10;15.13;;;5.45;;
70729;SDS011;58315;53.336;55.932;2023-02-21T09:43:40;14.52;;;5.30;;
70729;SDS011;58315;53.336;55.932;2023-02-21T09:46:18;14.35;;;5.30;;
70729;SDS011;58315;53.336;55.932;2023-02-21T09:48:57;21.27;;;6.38;;
70729;SDS011;58315;53.336;55.932;2023-02-21T09:51:23;18.10;;;5.57;;
70729;SDS011;58315;53.336;55.932;2023-02-21T09:53:50;15.02;;;5.55;;
70729;SDS011;58315;53.336;55.932;2023-02-21T09:56:20;15.70;;;5.17;;
70729;SDS011;58315;53.336;55.932;2023-02-21T09:58:54;16.25;;;6.18;;
70729;SDS011;58315;53.336;55.932;2023-02-21T10:09:26;21.45;;;7.05;;
70729;SDS011;58315;53.336;55.932;2023-02-21T10:18:04;13.43;;;5.25;;
70729;SDS011;58315;53.336;55.932;2023-02-21T10:20:51;15.30;;;5.32;;
70729;SDS011;58315;53.336;55.932;2023-02-21T10:23:23;9.68;;;3.88;;
70729;SDS011;58315;53.336;55.932;2023-02-21T10:25:56;10.85;;;4.72;;
70729;SDS011;58315;53.336;55.932;2023-02-21T10:28:27;13.23;;;4.63;;
70729;SDS011;58315;53.336;55.932;2023-02-21T10:30:56;10.10;;;4.80;;
70729;SDS011;58315;53.336;55.932;2023-02-21T10:33:25;6.95;;;3.22;;
70729;SDS011;58315;53.336;55.932;2023-02-21T10:35:51;8.40;;;3.92;;
70729;SDS011;58315;53.336;55.932;2023-02-21T10:38:20;9.25;;;3.08;;
70729;SDS011;58315;53.336;55.932;2023-02-21T10:40:51;6.28;;;2.67;;
70729;SDS011;58315;53.336;55.932;2023-02-21T10:43:30;4.97;;;2.90;;
70729;SDS011;58315;53.336;55.932;2023-02-21T10:48:46;6.28;;;2.35;;
70729;SDS011;58315;53.336;55.932;2023-02-21T10:51:33;4.80;;;2.58;;
70729;SDS011;58315;53.336;55.932;2023-02-21T10:54:33;5.63;;;2.58;;
70729;SDS011;58315;53.336;55.932;2023-02-21T10:56:52;6.85;;;3.28;;
70729;SDS011;58315;53.336;55.932;2023-02-21T10:59:22;7.80;;;3.58;;
70729;SDS011;58315;53.336;55.932;2023-02-21T11:01:54;10.82;;;4.88;;
70729;SDS011;58315;53.336;55.932;2023-02-21T11:04:23;7.65;;;3.53;;
70729;SDS011;58315;53.336;55.932;2023-02-21T11:07:00;9.05;;;3.95;;
70729;SDS011;58315;53.336;55.932;2023-02-21T11:22:20;10.05;;;4.32;;
70729;SDS011;58315;53.336;55.932;2023-02-21T11:27:57;8.05;;;4.07;;
70729;SDS011;58315;53.336;55.932;2023-02-21T11:30:27;9.82;;;4.07;;
70729;SDS011;58315;53.336;55.932;2023-02-21T11:32:57;5.13;;;2.78;;
70729;SDS011;58315;53.336;55.932;2023-02-21T11:40:23;13.10;;;3.55;;
70729;SDS011;58315;53.336;55.932;2023-02-21T11:45:37;12.55;;;4.40;;
70729;SDS011;58315;53.336;55.932;2023-02-21T11:48:12;11.75;;;4.53;;
70729;SDS011;58315;53.336;55.932;2023-02-21T11:51:03;9.95;;;4.00;;
70729;SDS011;58315;53.336;55.932;2023-02-21T11:53:39;9.27;;;3.88;;
70729;SDS011;58315;53.336;55.932;2023-02-21T12:01:28;7.07;;;3.33;;
70729;SDS011;58315;53.336;55.932;2023-02-21T12:12:29;11.00;;;3.67;;
70729;SDS011;58315;53.336;55.932;2023-02-21T12:15:09;7.00;;;3.67;;
70729;SDS011;58315;53.336;55.932;2023-02-21T12:18:14;8.35;;;3.13;;
70729;SDS011;58315;53.336;55.932;2023-02-21T12:29:26;4.40;;;2.53;;
70729;SDS011;58315;53.336;55.932;2023-02-21T12:32:32;6.80;;;2.78;;
70729;SDS011;58315;53.336;55.932;2023-02-21T12:38:30;5.85;;;2.13;;
70729;SDS011;58315;53.336;55.932;2023-02-21T12:44:11;4.68;;;2.15;;
70729;SDS011;58315;53.336;55.932;2023-02-21T12:49:22;5.07;;;2.78;;
70729;SDS011;58315;53.336;55.932;2023-02-21T12:52:15;5.03;;;2.70;;
70729;SDS011;58315;53.336;55.932;2023-02-21T12:57:49;5.22;;;2.30;;
70729;SDS011;58315;53.336;55.932;2023-02-21T13:08:28;5.47;;;2.38;;
70729;SDS011;58315;53.336;55.932;2023-02-21T13:13:41;3.55;;;1.85;;
70729;SDS011;58315;53.336;55.932;2023-02-21T13:16:08;2.53;;;1.48;;
70729;SDS011;58315;53.336;55.932;2023-02-21T13:24:13;5.57;;;2.20;;
70729;SDS011;58315;53.336;55.932;2023-02-21T13:26:54;2.72;;;1.60;;
70729;SDS011;58315;53.336;55.932;2023-02-21T13:29:40;5.57;;;2.05;;
70729;SDS011;58315;53.336;55.932;2023-02-21T13:32:08;3.55;;;2.00;;
70729;SDS011;58315;53.336;55.932;2023-02-21T13:34:55;3.28;;;1.77;;
70729;SDS011;58315;53.336;55.932;2023-02-21T13:37:27;3.58;;;1.70;;
70729;SDS011;58315;53.336;55.932;2023-02-21T13:39:58;3.28;;;1.40;;
70729;SDS011;58315;53.336;55.932;2023-02-21T13:42:32;4.65;;;1.45;;
70729;SDS011;58315;53.336;55.932;2023-02-21T13:56:11;1.05;;;0.85;;
70729;SDS011;58315;53.336;55.932;2023-02-21T13:58:36;2.50;;;1.50;;
70729;SDS011;58315;53.336;55.932;2023-02-21T14:01:12;7.78;;;1.90;;
70729;SDS011;58315;53.336;55.932;2023-02-21T14:03:38;3.88;;;1.58;;
70729;SDS011;58315;53.336;55.932;2023-02-21T14:08:43;8.18;;;3.00;;
70729;SDS011;58315;53.336;55.932;2023-02-21T14:11:25;7.45;;;2.72;;
70729;SDS011;58315;53.336;55.932;2023-02-21T14:14:22;5.78;;;2.53;;
70729;SDS011;58315;53.336;55.932;2023-02-21T14:17:00;8.75;;;2.55;;
70729;SDS011;58315;53.336;55.932;2023-02-21T14:19:32;3.63;;;1.42;;
70729;SDS011;58315;53.336;55.932;2023-02-21T14:22:03;1.63;;;1.25;;
70729;SDS011;58315;53.336;55.932;2023-02-21T14:24:37;5.47;;;1.92;;
70729;SDS011;58315;53.336;55.932;2023-02-21T14:32:48;3.97;;;1.63;;
70729;SDS011;58315;53.336;55.932;2023-02-21T14:37:57;5.40;;;2.10;;
70729;SDS011;58315;53.336;55.932;2023-02-21T14:45:57;5.63;;;2.95;;
70729;SDS011;58315;53.336;55.932;2023-02-21T15:05:22;5.75;;;2.88;;
70729;SDS011;58315;53.336;55.932;2023-02-21T15:07:55;14.15;;;3.72;;
70729;SDS011;58315;53.336;55.932;2023-02-21T15:10:31;10.20;;;2.90;;
70729;SDS011;58315;53.336;55.932;2023-02-21T15:13:04;5.00;;;2.90;;
70729;SDS011;58315;53.336;55.932;2023-02-21T15:15:34;7.40;;;3.25;;
70729;SDS011;58315;53.336;55.932;2023-02-21T15:18:09;6.53;;;2.72;;
70729;SDS011;58315;53.336;55.932;2023-02-21T15:21:00;10.77;;;3.40;;
70729;SDS011;58315;53.336;55.932;2023-02-21T15:23:29;6.22;;;2.80;;
70729;SDS011;58315;53.336;55.932;2023-02-21T15:25:57;3.58;;;2.08;;
70729;SDS011;58315;53.336;55.932;2023-02-21T15:28:29;6.75;;;2.42;;
70729;SDS011;58315;53.336;55.932;2023-02-21T15:31:04;7.20;;;3.40;;
70729;SDS011;58315;53.336;55.932;2023-02-21T15:33:33;4.03;;;2.22;;
70729;SDS011;58315;53.336;55.932;2023-02-21T15:36:08;7.40;;;3.10;;
70729;SDS011;58315;53.336;55.932;2023-02-21T15:41:37;8.82;;;2.47;;
70729;SDS011;58315;53.336;55.932;2023-02-21T15:44:17;6.97;;;2.67;;
70729;SDS011;58315;53.336;55.932;2023-02-21T15:49:16;6.05;;;2.65;;
70729;SDS011;58315;53.336;55.932;2023-02-21T15:51:48;7.07;;;2.42;;
70729;SDS011;58315;53.336;55.932;2023-02-21T15:54:23;4.05;;;2.35;;
70729;SDS011;58315;53.336;55.932;2023-02-21T15:59:49;4.70;;;2.60;;
70729;SDS011;58315;53.336;55.932;2023-02-21T16:02:41;4.13;;;2.10;;
70729;SDS011;58315;53.336;55.932;2023-02-21T16:05:23;7.22;;;2.38;;
70729;SDS011;58315;53.336;55.932;2023-02-21T16:07:51;7.93;;;2.70;;
70729;SDS011;58315;53.336;55.932;2023-02-21T16:10:21;8.38;;;2.42;;
70729;SDS011;58315;53.336;55.932;2023-02-21T16:12:55;5.95;;;2.78;;
70729;SDS011;58315;53.336;55.932;2023-02-21T16:15:25;8.93;;;2.88;;
70729;SDS011;58315;53.336;55.932;2023-02-21T16:17:58;6.20;;;2.58;;
70729;SDS011;58315;53.336;55.932;2023-02-21T16:23:38;4.72;;;2.45;;
70729;SDS011;58315;53.336;55.932;2023-02-21T16:28:28;4.60;;;2.35;;
70729;SDS011;58315;53.336;55.932;2023-02-21T16:30:58;6.65;;;2.50;;
70729;SDS011;58315;53.336;55.932;2023-02-21T16:33:27;3.15;;;1.38;;
70729;SDS011;58315;53.336;55.932;2023-02-21T16:35:53;7.50;;;3.03;;
70729;SDS011;58315;53.336;55.932;2023-02-21T16:38:21;5.78;;;2.95;;
70729;SDS011;58315;53.336;55.932;2023-02-21T16:40:48;7.55;;;2.35;;
70729;SDS011;58315;53.336;55.932;2023-02-21T16:43:17;6.85;;;2.60;;
70729;SDS011;58315;53.336;55.932;2023-02-21T16:45:47;4.80;;;2.22;;
70729;SDS011;58315;53.336;55.932;2023-02-21T16:48:16;7.57;;;2.50;;
70729;SDS011;58315;53.336;55.932;2023-02-21T16:50:46;6.85;;;2.42;;
70729;SDS011;58315;53.336;55.932;2023-02-21T16:53:32;8.98;;;3.50;;
70729;SDS011;58315;53.336;55.932;2023-02-21T16:55:58;8.07;;;2.60;;
70729;SDS011;58315;53.336;55.932;2023-02-21T16:58:34;10.73;;;2.63;;
70729;SDS011;58315;53.336;55.932;2023-02-21T17:01:07;4.53;;;2.65;;
70729;SDS011;58315;53.336;55.932;2023-02-21T17:03:38;6.13;;;2.25;;
70729;SDS011;58315;53.336;55.932;2023-02-21T17:06:05;6.15;;;3.03;;
70729;SDS011;58315;53.336;55.932;2023-02-21T17:08:31;7.72;;;2.42;;
70729;SDS011;58315;53.336;55.932;2023-02-21T17:10:57;4.88;;;2.95;;
70729;SDS011;58315;53.336;55.932;2023-02-21T17:13:24;4.88;;;2.42;;
70729;SDS011;58315;53.336;55.932;2023-02-21T17:15:50;7.57;;;2.85;;
70729;SDS011;58315;53.336;55.932;2023-02-21T17:18:16;4.50;;;2.72;;
70729;SDS011;58315;53.336;55.932;2023-02-21T17:20:42;6.05;;;2.88;;
70729;SDS011;58315;53.336;55.932;2023-02-21T17:23:08;4.07;;;2.08;;
70729;SDS011;58315;53.336;55.932;2023-02-21T17:25:34;9.60;;;3.05;;
70729;SDS011;58315;53.336;55.932;2023-02-21T17:28:01;8.77;;;2.83;;
70729;SDS011;58315;53.336;55.932;2023-02-21T17:30:27;11.95;;;3.13;;
70729;SDS011;58315;53.336;55.932;2023-02-21T17:32:56;5.53;;;2.67;;
70729;SDS011;58315;53.336;55.932;2023-02-21T17:35:22;5.03;;;2.67;;
70729;SDS011;58315;53.336;55.932;2023-02-21T17:37:49;5.82;;;2.90;;
70729;SDS011;58315;53.336;55.932;2023-02-21T17:40:17;7.22;;;2.78;;
70729;SDS011;58315;53.336;55.932;2023-02-21T17:42:44;15.18;;;4.65;;
70729;SDS011;58315;53.336;55.932;2023-02-21T17:45:10;8.45;;;3.65;;
70729;SDS011;58315;53.336;55.932;2023-02-21T17:47:37;8.02;;;3.55;;
70729;SDS011;58315;53.336;55.932;2023-02-21T17:50:04;8.10;;;3.33;;
70729;SDS011;58315;53.336;55.932;2023-02-21T17:52:31;6.05;;;3.13;;
70729;SDS011;58315;53.336;55.932;2023-02-21T17:54:57;8.23;;;3.80;;
70729;SDS011;58315;53.336;55.932;2023-02-21T17:57:23;7.55;;;3.65;;
70729;SDS011;58315;53.336;55.932;2023-02-21T17:59:49;4.28;;;2.63;;
70729;SDS011;58315;53.336;55.932;2023-02-21T18:02:15;8.25;;;3.58;;
70729;SDS011;58315;53.336;55.932;2023-02-21T18:04:43;8.57;;;3.72;;
70729;SDS011;58315;53.336;55.932;2023-02-21T18:07:10;7.32;;;3.60;;
70729;SDS011;58315;53.336;55.932;2023-02-21T18:09:36;5.55;;;2.78;;
70729;SDS011;58315;53.336;55.932;2023-02-21T18:12:02;7.13;;;3.00;;